Yakutat Airport

Current Flights

Info
Name: Yakutat Airport
Identifier:  YAK/PAYA
Local Time:  15. Jun 22:59
City
Flights per Day
5 flights
Distance: 422km (262mi)
Punctuality
92% (0 flights per day delayed)
Delay Average: 4 minutes
Current Weather
 12 C (Humidity: 93%)
  3kt (5km/h / 3mph) from 40°
  Overcast at 6,000 feet (1,828 meter)
  16km (10 mi.)
 Light/Moderate: Rain
 METAR PAYA 160553Z AUTO 04003KT 10SM -RA OVC060 12/11 A2991 RMK AO2 SLP130 P0003 60011 T01170111 10133 20117 56009 TSNO $

Current Delays

Departures
N/A
Arrivals
N/A

Destinations

Top Destinations
Airport Flights
per week
Seats
per week
  Juneau (JNU) 17 2,138 2 305
  Cordova (CDV) 15 2,166 2 309
  Anchorage (ANC) 4 - 0 0
  Ketchikan (KTN) 3 - 0 0
  Seattle (SEA) 0 57 0 8

Airlines & Planes

Top Airlines
Airline Flights
per Day
Seats
per Day
  Alaska Airlines 4 623
Alaska Central Express 1 -
Top Plane Types
Model Flights Seats
Boeing B737-800 2.3/day 380/day 380.06666666666666
Boeing B737-700 2.0/day 219/day 219.06666666666666
Beech 1900D 1.6/day - 0
Boeing B737-900 0.1/day 24/day 24.133333333333333